Time;durP1;ratioP1;P1;durP2;ratioP2;P2;SDS_P1;SDS_P2;PMS_P1;PMS_P2;Temp;Humidity;BMP_temperature;BMP_pressure;BME280_temperature;BME280_humidity;BME280_pressure;Samples;Min_cycle;Max_cycle;Signal;HPM_P1;HPM_P2
2022/03/09 00:02:10;;;;;;;40.55;18.02;;;;;;;-1.59;100.00;60640.75;5094448;28;20437;-74
2022/03/09 00:04:40;;;;;;;42.03;19.70;;;;;;;-1.51;100.00;60649.75;5093007;28;20227;-74
2022/03/09 00:07:09;;;;;;;40.73;20.13;;;;;;;-1.33;100.00;60666.28;5093105;28;20450;-76
2022/03/09 00:09:37;;;;;;;45.67;20.23;;;;;;;-1.97;100.00;60601.09;5092906;28;20561;-76
2022/03/09 00:12:06;;;;;;;39.97;19.63;;;;;;;-1.57;100.00;60643.41;5092816;28;20256;-74
2022/03/09 00:14:33;;;;;;;30.40;14.60;;;;;;;-1.75;100.00;60619.38;5092719;28;20442;-75
2022/03/09 00:17:00;;;;;;;38.40;18.60;;;;;;;-1.57;100.00;60645.88;5092935;28;20438;-75
2022/03/09 00:19:27;;;;;;;39.03;17.57;;;;;;;-1.54;100.00;60646.56;5092138;28;20457;-74
2022/03/09 00:21:54;;;;;;;39.35;18.75;;;;;;;-1.51;100.00;60647.25;5093445;28;20845;-74
2022/03/09 00:24:23;;;;;;;36.13;17.10;;;;;;;-1.61;100.00;60636.66;5092647;28;20285;-75
2022/03/09 00:26:51;;;;;;;42.72;18.42;;;;;;;-1.61;100.00;60636.66;5092171;28;20502;-74
2022/03/09 00:29:18;;;;;;;39.72;19.02;;;;;;;-1.69;100.00;60633.19;5092554;28;20195;-75
2022/03/09 00:31:46;;;;;;;41.33;19.03;;;;;;;-1.71;100.00;60631.09;5092174;28;20248;-76
2022/03/09 00:34:14;;;;;;;36.23;16.67;;;;;;;-1.64;100.00;60633.47;5092655;28;20456;-75
2022/03/09 00:36:42;;;;;;;38.88;18.23;;;;;;;-1.57;100.00;60640.91;5092788;28;20442;-75
2022/03/09 00:39:09;;;;;;;44.93;20.63;;;;;;;-1.58;100.00;60644.81;5092395;28;20257;-73
2022/03/09 00:41:41;;;;;;;38.27;17.77;;;;;;;-3.04;100.00;60486.09;5091902;28;20506;-75
2022/03/09 00:44:11;;;;;;;37.33;19.10;;;;;;;-1.52;100.00;60646.16;5092930;28;20489;-74
2022/03/09 00:46:40;;;;;;;42.28;19.90;;;;;;;-1.46;100.00;60652.53;5092320;28;20494;-73
2022/03/09 00:49:07;;;;;;;41.90;18.60;;;;;;;-1.58;100.00;60639.28;5090612;28;20666;-73
2022/03/09 00:51:36;;;;;;;43.55;19.90;;;;;;;-1.48;100.00;60650.41;5092231;28;20473;-74
2022/03/09 00:54:03;;;;;;;40.28;18.83;;;;;;;-1.50;100.00;60653.28;5092189;28;20260;-74
2022/03/09 00:56:33;;;;;;;41.30;19.23;;;;;;;-1.58;100.00;60644.81;5092140;28;20215;-74
2022/03/09 00:59:02;;;;;;;42.60;20.37;;;;;;;-1.44;100.00;60659.63;5091859;28;20200;-75
2022/03/09 01:01:29;;;;;;;37.60;19.33;;;;;;;-1.43;100.00;60655.16;5092004;28;20824;-74
2022/03/09 01:03:56;;;;;;;39.37;18.93;;;;;;;-1.52;100.00;60651.16;5092027;28;20477;-74
2022/03/09 01:06:24;;;;;;;48.85;21.02;;;;;;;-2.23;100.00;60576.13;5092223;28;20442;-77
2022/03/09 01:08:54;;;;;;;41.50;19.90;;;;;;;-1.64;100.00;60638.47;5091559;28;20235;-76
2022/03/09 01:11:22;;;;;;;44.03;20.53;;;;;;;-2.23;100.00;60571.63;5091770;28;20639;-75
2022/03/09 01:13:49;;;;;;;41.23;19.73;;;;;;;-1.61;100.00;60636.13;5091805;28;21024;-74
2022/03/09 01:18:58;;;;;;;45.65;20.85;;;;;;;-1.60;100.00;60632.72;5092393;28;20494;-74
2022/03/09 01:21:26;;;;;;;40.67;20.10;;;;;;;-1.73;100.00;60623.97;5093403;28;20203;-76
2022/03/09 01:23:53;;;;;;;39.03;18.17;;;;;;;-1.80;100.00;60619.06;5092081;28;20492;-76
2022/03/09 01:26:20;;;;;;;34.67;16.80;;;;;;;-1.88;100.00;60608.09;5092457;28;20457;-73
2022/03/09 01:28:51;;;;;;;42.87;18.43;;;;;;;-1.91;100.00;60604.94;5092507;28;20503;-75
2022/03/09 01:31:20;;;;;;;38.38;19.15;;;;;;;-1.78;100.00;60619.22;5092183;28;20483;-76
2022/03/09 01:33:48;;;;;;;39.20;17.30;;;;;;;-3.08;100.00;60486.84;5091651;28;20195;-73
2022/03/09 01:36:17;;;;;;;31.73;15.03;;;;;;;-1.93;100.00;60603.34;5091870;28;20219;-72
2022/03/09 01:38:45;;;;;;;39.47;17.73;;;;;;;-2.22;100.00;60572.72;5091871;28;20855;-74
2022/03/09 01:41:12;;;;;;;44.13;19.95;;;;;;;-1.83;100.00;60618.41;5091567;28;20196;-74
2022/03/09 01:43:39;;;;;;;39.83;16.90;;;;;;;-1.85;100.00;60613.78;5091625;28;20352;-75
2022/03/09 01:46:06;;;;;;;40.38;18.98;;;;;;;-1.68;100.00;60631.75;5091337;28;20483;-77
2022/03/09 01:48:37;;;;;;;38.90;18.60;;;;;;;-1.72;100.00;60625.03;5091353;28;20204;-75
2022/03/09 01:51:05;;;;;;;41.67;18.33;;;;;;;-1.81;100.00;60621.03;5092354;28;20195;-77
2022/03/09 01:53:33;;;;;;;37.50;19.05;;;;;;;-1.77;100.00;60624.75;5092543;28;20818;-73
2022/03/09 01:56:01;;;;;;;37.42;17.17;;;;;;;-1.83;100.00;60616.41;5091894;28;20200;-77
2022/03/09 01:58:28;;;;;;;35.90;16.60;;;;;;;-1.79;100.00;60620.66;5092733;28;20196;-75
2022/03/09 02:00:55;;;;;;;35.97;18.47;;;;;;;-1.90;100.00;60608.50;5095714;28;20200;-73
2022/03/09 02:03:23;;;;;;;38.07;18.53;;;;;;;-1.76;100.00;60621.34;5095605;28;20489;-75
2022/03/09 02:05:52;;;;;;;40.20;17.77;;;;;;;-1.97;100.00;60598.59;5095711;28;20446;-73
2022/03/09 02:11:03;;;;;;;27.95;14.55;;;;;;;-1.66;100.00;60633.88;5096222;28;20428;-74
2022/03/09 02:13:30;;;;;;;41.25;16.88;;;;;;;-1.91;100.00;60607.44;5100108;28;20286;-74
2022/03/09 02:15:57;;;;;;;35.58;17.38;;;;;;;-3.02;100.00;60493.72;5095087;28;20207;-74
2022/03/09 02:18:26;;;;;;;29.80;15.45;;;;;;;-1.72;100.00;60625.03;5095421;28;20249;-73
2022/03/09 02:21:03;;;;;;;33.38;16.33;;;;;;;-1.67;100.00;60640.31;5094770;28;20200;-75
2022/03/09 02:23:32;;;;;;;38.05;17.38;;;;;;;-1.72;100.00;60625.03;5094156;28;20249;-75
2022/03/09 02:25:59;;;;;;;35.97;17.60;;;;;;;-2.01;100.00;60594.38;5095630;28;20252;-74
2022/03/09 02:28:28;;;;;;;35.20;16.27;;;;;;;-2.92;100.00;60504.28;5094487;28;20453;-75
2022/03/09 02:30:56;;;;;;;37.60;17.00;;;;;;;-1.72;100.00;60630.56;5094686;28;20437;-73
2022/03/09 02:33:25;;;;;;;30.77;14.43;;;;;;;-1.70;100.00;60627.13;5094827;28;20655;-73
2022/03/09 02:35:53;;;;;;;33.50;15.53;;;;;;;-1.63;100.00;60634.03;5094639;28;21015;-74
2022/03/09 02:38:21;;;;;;;36.77;18.70;;;;;;;-2.99;100.00;60491.91;5094591;28;20874;-72
2022/03/09 02:40:51;;;;;;;38.75;17.77;;;;;;;-1.52;100.00;60643.69;5095339;28;20510;-73
2022/03/09 02:43:18;;;;;;;36.20;17.92;;;;;;;-1.69;100.00;60635.69;5094750;28;20287;-74
2022/03/09 02:45:45;;;;;;;36.20;17.30;;;;;;;-1.70;100.00;60627.13;5094476;28;20747;-74
2022/03/09 02:48:12;;;;;;;39.73;18.67;;;;;;;-1.65;100.00;60632.44;5094719;28;20337;-73
2022/03/09 02:50:39;;;;;;;38.10;16.67;;;;;;;-1.66;100.00;60633.88;5094384;28;20592;-75
2022/03/09 02:53:07;;;;;;;37.75;17.15;;;;;;;-1.75;100.00;60621.88;5095269;28;20200;-74
2022/03/09 02:55:34;;;;;;;37.05;16.52;;;;;;;-1.79;100.00;60620.13;5094296;28;20748;-74
2022/03/09 02:58:04;;;;;;;35.30;16.50;;;;;;;-1.81;100.00;60618.00;5094072;28;20251;-75
2022/03/09 03:00:32;;;;;;;38.40;17.23;;;;;;;-1.86;100.00;60610.22;5094571;28;20422;-74
2022/03/09 03:02:59;;;;;;;30.95;14.75;;;;;;;-2.12;100.00;60587.72;5094099;28;20811;-74
2022/03/09 03:05:27;;;;;;;37.53;18.00;;;;;;;-1.88;100.00;60610.59;5093861;28;20990;-74
2022/03/09 03:07:54;;;;;;;36.33;16.40;;;;;;;-1.89;100.00;60612.06;5092935;28;21021;-75
2022/03/09 03:10:21;;;;;;;33.33;16.93;;;;;;;-2.18;100.00;60576.94;5092355;28;20860;-76
2022/03/09 03:12:48;;;;;;;36.63;16.87;;;;;;;-1.79;100.00;60622.63;5094557;28;20429;-74
2022/03/09 03:15:19;;;;;;;33.08;17.05;;;;;;;-2.51;100.00;60542.06;5094207;28;20434;-74
2022/03/09 03:17:49;;;;;;;34.63;17.73;;;;;;;-1.68;100.00;60629.25;5093228;28;20203;-75
2022/03/09 03:20:16;;;;;;;36.00;16.85;;;;;;;-1.71;100.00;60628.59;5093874;28;20196;-74
2022/03/09 03:22:43;;;;;;;33.20;16.88;;;;;;;-4.18;100.00;60371.81;5093817;28;20195;-73
2022/03/09 03:25:10;;;;;;;39.30;17.98;;;;;;;-3.29;100.00;60460.22;5093521;28;20284;-74
2022/03/09 03:27:37;;;;;;;36.72;17.60;;;;;;;-1.75;100.00;60624.34;5093467;28;20223;-73
2022/03/09 03:30:11;;;;;;;43.13;18.45;;;;;;;-2.18;100.00;60584.41;5093214;28;20207;-74
2022/03/09 03:32:47;;;;;;;34.40;16.93;;;;;;;-1.76;100.00;60623.28;5092562;28;20206;-75
2022/03/09 03:35:14;;;;;;;36.93;17.70;;;;;;;-1.88;100.00;60608.09;5093501;28;20829;-77
2022/03/09 03:37:43;;;;;;;42.20;18.17;;;;;;;-1.88;100.00;60608.09;5093591;28;20500;-75
2022/03/09 03:40:11;;;;;;;37.40;17.67;;;;;;;-1.92;100.00;60606.38;5093450;28;20989;-74
2022/03/09 03:42:38;;;;;;;36.83;17.95;;;;;;;-2.03;100.00;60592.78;5093036;28;20708;-74
2022/03/09 03:45:06;;;;;;;39.50;18.35;;;;;;;-2.40;100.00;60555.66;5093780;28;20246;-74
2022/03/09 03:47:34;;;;;;;39.97;16.88;;;;;;;-1.87;100.00;60609.19;5093278;28;20616;-74
2022/03/09 03:50:04;;;;;;;38.13;18.17;;;;;;;-1.90;100.00;60606.00;5093263;28;20203;-76
2022/03/09 03:52:32;;;;;;;35.42;16.58;;;;;;;-1.88;100.00;60608.66;5093907;28;20215;-75
2022/03/09 03:55:02;;;;;;;40.58;19.85;;;;;;;-1.79;100.00;60618.16;5093044;28;20627;-75
2022/03/09 03:57:29;;;;;;;34.37;16.33;;;;;;;-1.87;100.00;60614.16;5092800;28;20215;-75
2022/03/09 03:59:57;;;;;;;37.92;17.90;;;;;;;-1.83;100.00;60618.41;5092843;28;20450;-74
2022/03/09 04:02:24;;;;;;;36.43;17.47;;;;;;;-1.97;100.00;60598.59;5093060;28;20248;-74
2022/03/09 04:04:51;;;;;;;36.92;17.40;;;;;;;-2.28;100.00;60565.84;5092638;28;20866;-74
2022/03/09 04:07:21;;;;;;;40.50;18.85;;;;;;;-1.71;100.00;60626.59;5093011;28;20199;-76
2022/03/09 04:09:48;;;;;;;37.10;16.77;;;;;;;-2.26;100.00;60570.97;5091021;28;20235;-74
2022/03/09 04:12:16;;;;;;;40.58;18.50;;;;;;;-1.86;100.00;60610.22;5093212;28;20438;-75
2022/03/09 04:14:45;;;;;;;34.60;17.07;;;;;;;-1.97;100.00;60598.59;5092753;28;20195;-74
2022/03/09 04:17:14;;;;;;;37.70;18.00;;;;;;;-1.88;100.00;60610.59;5092466;28;20438;-75
2022/03/09 04:19:41;;;;;;;35.70;17.38;;;;;;;-1.93;100.00;60602.84;5092244;28;20452;-76
2022/03/09 04:22:08;;;;;;;37.35;17.73;;;;;;;-2.02;100.00;60591.34;5092497;28;20199;-72
2022/03/09 04:24:38;;;;;;;36.88;18.17;;;;;;;-1.81;100.00;60615.53;5096311;28;20227;-74
2022/03/09 04:27:05;;;;;;;37.97;17.70;;;;;;;-1.83;100.00;60613.41;5093097;28;20211;-73
2022/03/09 04:29:33;;;;;;;38.85;18.40;;;;;;;-1.81;100.00;60615.53;5092335;28;20456;-74
2022/03/09 04:32:00;;;;;;;41.23;18.27;;;;;;;-1.87;100.00;60614.69;5092488;28;20206;-74
2022/03/09 04:34:27;;;;;;;38.53;17.43;;;;;;;-2.09;100.00;60585.91;5092079;28;20458;-74
2022/03/09 04:36:56;;;;;;;37.33;17.60;;;;;;;-2.00;100.00;60597.91;5092392;28;20496;-75
2022/03/09 04:39:25;;;;;;;23.00;10.30;;;;;;;-1.99;100.00;60596.50;5092021;28;20199;-74
2022/03/09 04:41:55;;;;;;;38.60;17.80;;;;;;;-2.00;100.00;60595.97;5090943;28;20441;-74
2022/03/09 04:44:22;;;;;;;38.10;18.23;;;;;;;-1.97;100.00;60593.63;5092220;28;20765;-74
2022/03/09 04:46:49;;;;;;;41.17;19.47;;;;;;;-1.98;100.00;60600.03;5092004;28;20619;-74
2022/03/09 04:49:17;;;;;;;38.10;18.70;;;;;;;-2.95;100.00;60501.09;5092284;28;20924;-76
2022/03/09 04:51:44;;;;;;;36.13;17.47;;;;;;;-2.22;100.00;60572.16;5090622;28;20460;-74
2022/03/09 04:54:12;;;;;;;39.40;18.70;;;;;;;-1.97;100.00;60598.59;5091957;28;20939;-73
2022/03/09 04:56:40;;;;;;;38.75;19.25;;;;;;;-2.12;100.00;60588.25;5091747;28;20922;-74
2022/03/09 04:59:10;;;;;;;31.70;15.80;;;;;;;-2.07;100.00;60588.53;5092090;28;20196;-75
2022/03/09 05:01:39;;;;;;;38.10;17.35;;;;;;;-3.49;100.00;60441.59;5090639;28;21042;-74
2022/03/09 05:04:08;;;;;;;36.60;16.88;;;;;;;-2.19;100.00;60575.88;5093199;28;20670;-73
2022/03/09 05:06:37;;;;;;;35.63;17.25;;;;;;;-2.01;100.00;60599.38;5093837;28;20196;-73
2022/03/09 05:09:04;;;;;;;40.03;19.13;;;;;;;-1.93;100.00;60607.81;5092824;28;20790;-75
2022/03/09 05:11:31;;;;;;;41.80;18.83;;;;;;;-1.80;100.00;60619.59;5092312;28;20445;-77
2022/03/09 05:13:57;;;;;;;43.40;18.97;;;;;;;-1.93;100.00;60600.34;5092588;28;20449;-74
2022/03/09 05:16:27;;;;;;;38.77;17.80;;;;;;;-3.13;100.00;60477.13;5092537;28;20978;-73
2022/03/09 05:18:54;;;;;;;36.92;17.85;;;;;;;-1.97;100.00;60601.09;5092157;28;20434;-74
2022/03/09 05:21:21;;;;;;;37.80;19.17;;;;;;;-1.79;100.00;60620.66;5092840;28;20191;-74
2022/03/09 05:23:49;;;;;;;33.83;17.27;;;;;;;-1.85;100.00;60616.28;5091818;28;20261;-75
2022/03/09 05:26:16;;;;;;;41.45;18.73;;;;;;;-1.82;100.00;60614.44;5093464;28;20484;-74
2022/03/09 05:28:45;;;;;;;41.50;19.50;;;;;;;-1.78;100.00;60618.69;5093165;28;20568;-73
2022/03/09 05:31:20;;;;;;;39.22;18.10;;;;;;;-1.79;100.00;60617.63;5093579;28;20229;-74
2022/03/09 05:33:50;;;;;;;39.87;18.60;;;;;;;-1.88;100.00;60611.13;5093895;28;20200;-75
2022/03/09 05:36:18;;;;;;;41.57;18.63;;;;;;;-1.80;100.00;60622.09;5096955;28;20818;-73
2022/03/09 05:38:45;;;;;;;44.70;19.58;;;;;;;-1.80;100.00;60619.06;5096277;28;20437;-73
2022/03/09 05:41:12;;;;;;;35.72;16.55;;;;;;;-1.80;100.00;60619.06;5096391;28;20264;-74
2022/03/09 05:43:40;;;;;;;41.33;18.50;;;;;;;-2.83;100.00;60511.28;5096487;28;20268;-74
2022/03/09 05:46:11;;;;;;;38.58;18.83;;;;;;;-1.78;100.00;60619.22;5095535;28;20488;-75
2022/03/09 05:48:38;;;;;;;41.85;18.65;;;;;;;-1.58;100.00;60642.31;5095339;28;20223;-74
2022/03/09 05:51:08;;;;;;;42.60;20.67;;;;;;;-1.24;100.00;60678.28;5095888;28;20200;-75
2022/03/09 05:53:36;;;;;;;41.70;18.80;;;;;;;-1.40;100.00;60653.88;5096001;28;20499;-74
2022/03/09 05:56:04;;;;;;;34.83;17.23;;;;;;;-1.22;100.00;60675.41;5095337;28;20451;-74
2022/03/09 05:58:32;;;;;;;40.13;19.33;;;;;;;-1.32;100.00;60669.81;5095499;28;21029;-74
2022/03/09 06:01:02;;;;;;;38.33;17.20;;;;;;;-1.17;100.00;60683.22;5095549;28;20510;-75
2022/03/09 06:03:29;;;;;;;39.20;19.10;;;;;;;-1.76;100.00;60620.78;5095396;28;20231;-74
2022/03/09 06:05:56;;;;;;;38.13;17.33;;;;;;;-0.99;100.00;60701.72;5095394;28;20489;-74
2022/03/09 06:08:24;;;;;;;40.63;17.93;;;;;;;-0.78;100.00;60723.41;5095337;28;20584;-74
2022/03/09 06:10:54;;;;;;;42.93;19.20;;;;;;;-1.95;100.00;60603.22;5094935;28;20445;-72
2022/03/09 06:13:25;;;;;;;33.93;16.50;;;;;;;-0.76;100.00;60728.03;5095157;28;20438;-73
2022/03/09 06:15:53;;;;;;;38.30;19.23;;;;;;;-0.88;100.00;60713.88;5094956;28;21013;-73
2022/03/09 06:18:31;;;;;;;36.23;18.20;;;;;;;-0.95;100.00;60706.50;5095047;28;20465;-75
2022/03/09 06:20:58;;;;;;;29.10;14.13;;;;;;;-0.84;100.00;60722.06;5095041;28;20505;-74
2022/03/09 06:23:27;;;;;;;42.07;20.20;;;;;;;-0.55;100.00;60748.28;5094802;28;20498;-74
2022/03/09 06:25:54;;;;;;;39.40;19.27;;;;;;;-0.26;100.00;60778.47;5094880;28;20485;-75
2022/03/09 06:28:23;;;;;;;41.70;18.67;;;;;;;-1.13;100.00;60687.44;5093263;28;20944;-74
2022/03/09 06:30:50;;;;;;;41.63;20.53;;;;;;;-0.11;100.00;60799.88;5094876;28;20525;-74
2022/03/09 06:33:17;;;;;;;33.47;14.93;;;;;;;-0.39;100.00;60769.69;5093524;28;20432;-73
2022/03/09 06:35:44;;;;;;;40.07;19.73;;;;;;;-0.74;100.00;60727.66;5098149;28;20457;-75
2022/03/09 06:38:16;;;;;;;28.03;13.73;;;;;;;-0.17;100.00;60788.00;5094270;28;20470;-73
2022/03/09 06:40:46;;;;;;;23.53;12.27;;;;;;;-0.09;100.00;60796.47;5095094;28;20750;-74
2022/03/09 06:43:15;;;;;;;32.90;15.93;;;;;;;0.03;100.00;60814.19;5094126;28;20956;-73
2022/03/09 06:45:46;;;;;;;39.37;18.30;;;;;;;0.07;100.00;60815.91;5092583;28;20480;-73
2022/03/09 06:48:13;;;;;;;40.07;18.80;;;;;;;-0.09;100.00;60796.47;5094667;28;20440;-76
2022/03/09 06:50:43;;;;;;;36.07;17.60;;;;;;;-0.05;100.00;60801.25;5094237;28;20454;-75
2022/03/09 06:53:10;;;;;;;48.57;20.27;;;;;;;0.07;100.00;60815.91;5094554;28;20434;-76
2022/03/09 06:55:38;;;;;;;39.57;17.07;;;;;;;0.54;100.00;60868.25;5094318;28;20457;-73
2022/03/09 06:58:07;;;;;;;35.37;18.60;;;;;;;1.15;100.00;60931.88;5093971;28;20527;-74
2022/03/09 07:00:36;;;;;;;44.63;19.50;;;;;;;1.44;100.00;60962.63;5093948;28;20520;-74
2022/03/09 07:03:05;;;;;;;42.23;19.37;;;;;;;0.18;100.00;60830.09;5094199;28;20495;-73
2022/03/09 07:05:32;;;;;;;32.97;16.60;;;;;;;0.93;100.00;60904.03;5093802;28;20995;-75
2022/03/09 07:08:01;;;;;;;39.03;18.00;;;;;;;0.67;100.00;60877.00;5093743;28;20539;-76
2022/03/09 07:10:28;;;;;;;31.00;16.10;;;;;;;1.28;100.00;60945.66;5094922;28;20445;-73
2022/03/09 07:12:55;;;;;;;33.27;17.00;;;;;;;1.42;100.00;60960.50;5093667;28;20860;-75
2022/03/09 07:15:24;;;;;;;34.13;17.57;;;;;;;1.67;100.00;60982.03;5093550;28;20473;-75
2022/03/09 07:17:52;;;;;;;30.47;17.50;;;;;;;1.79;100.00;60999.78;5093886;28;20442;-75
2022/03/09 07:20:23;;;;;;;39.60;18.53;;;;;;;2.37;100.00;61056.34;5093548;28;20502;-74
2022/03/09 07:22:50;;;;;;;32.30;16.80;;;;;;;2.67;100.00;61089.66;5093766;28;20523;-75
2022/03/09 07:25:17;;;;;;;35.20;17.40;;;;;;;1.70;100.00;60987.72;5093543;28;20480;-76
2022/03/09 07:27:45;;;;;;;29.37;15.27;;;;;;;2.49;100.00;61073.59;5093161;28;20964;-76
2022/03/09 07:30:14;;;;;;;31.67;16.90;;;;;;;1.90;100.00;61008.41;5094263;28;20456;-75
2022/03/09 07:32:47;;;;;;;36.50;19.10;;;;;;;2.01;100.00;61023.13;5094154;28;20520;-75
2022/03/09 07:35:15;;;;;;;38.57;18.53;;;;;;;1.43;100.00;60962.09;5094064;28;20529;-75
2022/03/09 07:37:50;;;;;;;32.93;17.80;;;;;;;1.11;100.00;60922.63;5093205;28;20530;-75
2022/03/09 07:40:17;;;;;;;33.63;17.63;;;;;;;-0.01;100.00;60809.94;5093109;28;20468;-76
2022/03/09 07:42:46;;;;;;;34.00;17.03;;;;;;;1.24;100.00;60938.91;5093049;28;20450;-75
2022/03/09 07:45:13;;;;;;;36.50;18.03;;;;;;;1.46;100.00;60962.25;5093013;28;20481;-76
2022/03/09 07:47:47;;;;;;;37.67;18.03;;;;;;;1.50;100.00;60971.50;5092701;28;20883;-75
2022/03/09 07:50:16;;;;;;;40.00;17.80;;;;;;;1.66;100.00;60983.47;5093567;28;20429;-76
2022/03/09 07:52:49;;;;;;;35.27;17.70;;;;;;;1.31;100.00;60944.34;5093057;28;21025;-75
2022/03/09 07:55:18;;;;;;;30.07;16.30;;;;;;;1.97;100.00;61013.34;5093441;28;20442;-75
2022/03/09 07:57:47;;;;;;;31.53;16.87;;;;;;;2.29;100.00;61050.38;5091704;28;20458;-75
2022/03/09 08:00:17;;;;;;;31.70;16.03;;;;;;;2.54;100.00;61069.38;5092916;28;20461;-75
2022/03/09 08:02:49;;;;;;;28.60;14.77;;;;;;;2.26;100.00;61054.16;5092777;28;20442;-74
2022/03/09 08:05:16;;;;;;;33.30;16.37;;;;;;;2.81;100.00;61102.56;5092609;28;21003;-74
2022/03/09 08:07:45;;;;;;;35.03;16.10;;;;;;;2.34;100.00;61052.63;5092912;28;20418;-75
2022/03/09 08:10:13;;;;;;;29.60;17.13;;;;;;;3.53;100.00;61183.59;5092527;28;20507;-74
2022/03/09 08:12:45;;;;;;;31.70;17.83;;;;;;;4.09;100.00;61243.16;5091361;28;20444;-74
2022/03/09 08:15:15;;;;;;;30.27;16.43;;;;;;;3.96;100.00;61226.28;5091590;28;20446;-75
2022/03/09 08:17:44;;;;;;;36.03;18.83;;;;;;;3.70;100.00;61199.16;5091852;28;20894;-74
2022/03/09 08:20:13;;;;;;;37.90;20.53;;;;;;;4.06;100.00;61239.44;5092766;28;20429;-74
2022/03/09 08:22:43;;;;;;;41.33;20.83;;;;;;;3.83;100.00;61215.50;5092896;28;20510;-74
2022/03/09 08:25:10;;;;;;;34.47;18.57;;;;;;;3.94;100.00;61222.16;5092804;28;20940;-74
2022/03/09 08:27:42;;;;;;;48.00;20.13;;;;;;;3.67;100.00;61198.47;5092659;28;20495;-76
2022/03/09 08:30:10;;;;;;;36.70;19.57;;;;;;;4.41;100.00;61276.16;5092642;28;20463;-77
2022/03/09 08:32:46;;;;;;;35.90;20.13;;;;;;;3.95;100.00;61225.75;5092106;28;20481;-75
2022/03/09 08:35:15;;;;;;;40.57;20.30;;;;;;;3.45;100.00;61170.03;5092759;28;20438;-76
2022/03/09 08:37:49;;;;;;;39.07;20.80;;;;;;;4.23;100.00;61255.53;5091206;28;20434;-75
2022/03/09 08:40:16;;;;;;;38.90;20.27;;;;;;;4.52;100.00;61283.34;5092509;28;20491;-77
2022/03/09 08:42:43;;;;;;;35.80;20.87;;;;;;;4.82;100.00;61315.28;5092828;28;20515;-78
2022/03/09 08:45:12;;;;;;;35.67;19.40;;;;;;;4.67;100.00;61301.31;5093313;28;20507;-77
2022/03/09 08:47:41;;;;;;;40.33;20.33;;;;;;;4.76;100.00;61308.38;5094052;28;20442;-75
2022/03/09 08:50:09;;;;;;;35.87;19.93;;;;;;;4.11;100.00;61242.22;5092372;28;20436;-75
2022/03/09 08:52:40;;;;;;;34.43;18.77;;;;;;;4.98;100.00;61331.81;5090790;28;20446;-75
2022/03/09 08:55:08;;;;;;;35.43;20.00;;;;;;;5.21;100.00;61358.28;5092565;28;20476;-77
2022/03/09 08:57:36;;;;;;;39.10;19.63;;;;;;;5.34;100.00;61370.16;5090401;28;20491;-77
2022/03/09 09:00:07;;;;;;;31.13;18.23;;;;;;;5.40;100.00;61376.00;5090388;28;20445;-75
2022/03/09 09:02:34;;;;;;;38.60;18.80;;;;;;;4.94;100.00;61327.53;5091710;28;20437;-73
2022/03/09 09:05:02;;;;;;;34.97;20.33;;;;;;;4.83;100.00;61316.34;5092059;28;20507;-75
2022/03/09 09:07:29;;;;;;;36.27;21.07;;;;;;;5.24;100.00;61359.50;5091323;28;20490;-75
2022/03/09 09:09:57;;;;;;;38.10;19.77;;;;;;;4.94;100.00;61328.06;5091175;28;20433;-74
2022/03/09 09:12:25;;;;;;;36.03;20.00;;;;;;;5.05;100.00;61339.78;5091681;28;20936;-75
2022/03/09 09:14:54;;;;;;;32.20;18.50;;;;;;;5.05;100.00;61339.25;5091757;28;20794;-78
2022/03/09 09:17:22;;;;;;;36.50;19.70;;;;;;;5.48;100.00;61385.06;5091706;28;20984;-75
2022/03/09 09:19:49;;;;;;;33.00;19.40;;;;;;;4.89;100.00;61322.75;5091585;28;20440;-76
2022/03/09 09:22:16;;;;;;;38.93;19.63;;;;;;;5.75;100.00;61413.31;5091159;28;20449;-76
2022/03/09 09:24:45;;;;;;;36.60;19.93;;;;;;;5.45;100.00;61386.94;5091573;28;20450;-75
2022/03/09 09:27:17;;;;;;;30.77;18.53;;;;;;;5.48;100.00;61385.06;5091821;28;20519;-76
2022/03/09 09:29:44;;;;;;;39.60;20.43;;;;;;;5.10;100.00;61340.06;5091644;28;20434;-74
2022/03/09 09:32:13;;;;;;;32.43;18.87;;;;;;;5.50;100.00;61391.72;5091314;28;20442;-75
2022/03/09 09:34:43;;;;;;;34.90;20.03;;;;;;;5.75;100.00;61413.84;5090861;28;20982;-76
2022/03/09 09:37:10;;;;;;;33.87;19.80;;;;;;;6.08;100.00;61448.50;5091184;28;20456;-75
2022/03/09 09:39:37;;;;;;;35.40;18.57;;;;;;;6.26;100.00;61467.19;5092214;28;20434;-74
2022/03/09 09:42:05;;;;;;;32.93;19.33;;;;;;;6.40;100.00;61482.13;5091549;28;20433;-75
2022/03/09 09:44:36;;;;;;;35.47;19.67;;;;;;;6.39;100.00;61481.56;5091620;28;20471;-76
2022/03/09 09:47:08;;;;;;;32.47;18.90;;;;;;;6.29;100.00;61470.38;5091750;28;20485;-75
2022/03/09 09:49:37;;;;;;;33.20;18.47;;;;;;;6.99;100.00;61547.59;5090046;28;20980;-77
2022/03/09 09:52:06;;;;;;;29.03;16.33;;;;;;;6.44;100.00;61486.38;5091482;28;20537;-76
2022/03/09 09:54:36;;;;;;;28.20;14.60;;;;;;;6.33;100.00;61474.63;5092111;28;20510;-75
2022/03/09 09:57:03;;;;;;;26.67;15.47;;;;;;;6.07;100.00;61446.91;5091279;28;20461;-74
2022/03/09 09:59:35;;;;;;;27.53;16.23;;;;;;;6.41;100.00;61483.72;5091510;28;20434;-76
2022/03/09 10:02:06;;;;;;;26.00;12.60;;;;;;;6.70;100.00;61514.63;5091422;28;20430;-75
2022/03/09 10:04:34;;;;;;;24.37;13.33;;;;;;;7.46;100.00;61595.25;5091189;28;20457;-77
2022/03/09 10:07:02;;;;;;;22.57;14.07;;;;;;;6.38;100.00;61482.50;5091357;28;20485;-75
2022/03/09 10:09:35;;;;;;;26.90;14.73;;;;;;;5.62;100.00;61402.50;5091120;28;20473;-78
2022/03/09 10:12:06;;;;;;;18.63;11.90;;;;;;;5.95;100.00;61435.19;5091005;28;20503;-76
2022/03/09 10:14:48;;;;;;;23.43;12.53;;;;;;;6.28;100.00;61474.38;5091165;28;20434;-74
2022/03/09 10:17:18;;;;;;;21.13;13.30;;;;;;;6.84;100.00;61531.59;5091173;28;20524;-76
2022/03/09 10:19:47;;;;;;;19.40;12.03;;;;;;;6.51;100.00;61493.84;5091799;28;20434;-74
2022/03/09 10:22:32;;;;;;;18.93;11.57;;;;;;;6.10;100.00;61452.66;5094116;28;20452;-75
2022/03/09 10:25:17;;;;;;;22.10;12.67;;;;;;;6.29;100.00;61470.91;5094628;28;20486;-75
2022/03/09 10:27:49;;;;;;;18.77;11.27;;;;;;;5.33;100.00;61369.09;5094487;28;20492;-74
2022/03/09 10:30:20;;;;;;;22.00;11.23;;;;;;;5.06;100.00;61340.84;5094611;28;20441;-73
2022/03/09 10:32:53;;;;;;;18.30;10.40;;;;;;;4.85;100.00;61323.00;5094268;28;20430;-77
2022/03/09 10:35:39;;;;;;;21.50;11.30;;;;;;;5.22;100.00;61354.84;5092975;28;20955;-74
2022/03/09 10:38:08;;;;;;;20.13;11.17;;;;;;;5.33;100.00;61368.56;5094798;28;20453;-76
2022/03/09 10:40:43;;;;;;;17.80;10.83;;;;;;;5.48;100.00;61384.53;5094804;28;20948;-75
2022/03/09 10:43:13;;;;;;;29.23;11.70;;;;;;;5.83;100.00;61421.84;5093769;28;20806;-74
2022/03/09 10:46:02;;;;;;;16.03;10.27;;;;;;;5.21;100.00;61361.34;5093055;28;20445;-74
2022/03/09 10:48:50;;;;;;;13.43;7.87;;;;;;;5.43;100.00;61379.75;5094580;28;20480;-75
2022/03/09 10:51:26;;;;;;;20.37;10.37;;;;;;;5.56;100.00;61393.06;5094554;28;20446;-77
2022/03/09 10:53:56;;;;;;;13.60;8.90;;;;;;;5.55;100.00;61394.53;5095905;28;20440;-74
2022/03/09 10:56:23;;;;;;;23.10;12.03;;;;;;;5.67;100.00;61405.31;5095766;28;20525;-75
2022/03/09 10:58:50;;;;;;;17.20;9.87;;;;;;;5.71;100.00;61412.13;5094157;28;20442;-76
2022/03/09 11:01:23;;;;;;;14.17;8.10;;;;;;;6.32;100.00;61473.59;5093680;28;20446;-76
2022/03/09 11:03:54;;;;;;;13.53;8.40;;;;;;;6.95;100.00;61545.84;5092908;28;20453;-74
2022/03/09 11:06:22;;;;;;;13.73;8.90;;;;;;;7.59;100.00;61609.09;5094394;28;20535;-75
2022/03/09 11:08:49;;;;;;;17.20;9.70;;;;;;;8.49;100.00;61706.78;5093648;28;20480;-75
2022/03/09 11:11:17;;;;;;;14.97;9.53;;;;;;;8.71;100.00;61727.22;5093992;28;20430;-75
2022/03/09 11:13:47;;;;;;;18.93;10.10;;;;;;;7.49;100.00;61597.88;5093855;28;20438;-75
2022/03/09 11:16:18;;;;;;;15.00;9.83;;;;;;;7.13;100.00;61565.06;5092735;28;20438;-75
2022/03/09 11:18:47;;;;;;;16.20;9.03;;;;;;;7.47;100.00;61600.81;5093853;28;20441;-75
2022/03/09 11:21:16;;;;;;;15.40;9.37;;;;;;;7.25;100.00;61572.25;5093462;28;20446;-76
2022/03/09 11:23:44;;;;;;;16.30;8.70;;;;;;;5.95;100.00;61444.75;5093319;28;20830;-76
2022/03/09 11:26:15;;;;;;;16.63;10.07;;;;;;;6.34;100.00;61475.72;5093298;28;20960;-78